sensor_id;sensor_type;location;lat;lon;timestamp;pressure;altitude;pressure_sealevel;temperature;humidity
29063;BME280;71206;48.564;-123.458;2023-07-30T00:00:24;101054.95;;;24.05;25.67
29063;BME280;71206;48.564;-123.458;2023-07-30T00:02:52;101057.61;;;23.11;27.42
29063;BME280;71206;48.564;-123.458;2023-07-30T00:05:17;101053.77;;;24.10;26.20
29063;BME280;71206;48.564;-123.458;2023-07-30T00:07:41;101048.50;;;24.50;26.05
29063;BME280;71206;48.564;-123.458;2023-07-30T00:10:08;101052.68;;;24.98;25.24
29063;BME280;71206;48.564;-123.458;2023-07-30T00:12:35;101043.41;;;24.54;26.25
29063;BME280;71206;48.564;-123.458;2023-07-30T00:15:00;101044.46;;;23.56;26.15
29063;BME280;71206;48.564;-123.458;2023-07-30T00:17:24;101043.78;;;23.73;25.96
29063;BME280;71206;48.564;-123.458;2023-07-30T00:19:50;101041.57;;;23.13;26.25
29063;BME280;71206;48.564;-123.458;2023-07-30T00:22:16;101035.70;;;23.87;25.97
29063;BME280;71206;48.564;-123.458;2023-07-30T00:24:42;101032.54;;;24.08;25.10
29063;BME280;71206;48.564;-123.458;2023-07-30T00:27:07;101030.38;;;23.99;25.38
29063;BME280;71206;48.564;-123.458;2023-07-30T00:29:33;101024.53;;;24.73;24.45
29063;BME280;71206;48.564;-123.458;2023-07-30T00:31:59;101020.15;;;25.31;24.02
29063;BME280;71206;48.564;-123.458;2023-07-30T00:34:24;101022.50;;;25.47;23.42
29063;BME280;71206;48.564;-123.458;2023-07-30T00:36:50;101022.68;;;25.83;23.10
29063;BME280;71206;48.564;-123.458;2023-07-30T00:39:16;101016.08;;;25.11;24.47
29063;BME280;71206;48.564;-123.458;2023-07-30T00:41:41;101013.12;;;25.46;23.49
29063;BME280;71206;48.564;-123.458;2023-07-30T00:44:08;101016.98;;;25.74;23.87
29063;BME280;71206;48.564;-123.458;2023-07-30T00:46:33;101012.99;;;25.42;24.49
29063;BME280;71206;48.564;-123.458;2023-07-30T00:48:58;101013.14;;;26.21;22.90
29063;BME280;71206;48.564;-123.458;2023-07-30T00:51:25;101010.75;;;25.81;24.16
29063;BME280;71206;48.564;-123.458;2023-07-30T00:53:50;101010.67;;;25.05;24.24
29063;BME280;71206;48.564;-123.458;2023-07-30T00:56:17;101011.05;;;25.63;22.86
29063;BME280;71206;48.564;-123.458;2023-07-30T00:58:41;101009.21;;;24.89;23.66
29063;BME280;71206;48.564;-123.458;2023-07-30T01:01:07;101009.23;;;25.26;23.15
29063;BME280;71206;48.564;-123.458;2023-07-30T01:03:33;101011.85;;;24.27;24.03
29063;BME280;71206;48.564;-123.458;2023-07-30T01:06:00;101009.61;;;25.75;22.58
29063;BME280;71206;48.564;-123.458;2023-07-30T01:08:24;101006.17;;;25.28;23.22
29063;BME280;71206;48.564;-123.458;2023-07-30T01:10:50;101005.96;;;26.39;22.62
29063;BME280;71206;48.564;-123.458;2023-07-30T01:13:16;101007.28;;;26.14;24.09
29063;BME280;71206;48.564;-123.458;2023-07-30T01:15:42;101005.05;;;26.17;24.93
29063;BME280;71206;48.564;-123.458;2023-07-30T01:18:07;100996.97;;;27.05;23.65
29063;BME280;71206;48.564;-123.458;2023-07-30T01:20:33;100989.85;;;26.59;25.90
29063;BME280;71206;48.564;-123.458;2023-07-30T01:22:58;100987.00;;;27.04;25.81
29063;BME280;71206;48.564;-123.458;2023-07-30T01:25:25;100991.46;;;26.58;25.65
29063;BME280;71206;48.564;-123.458;2023-07-30T01:27:54;100994.90;;;25.94;27.06
29063;BME280;71206;48.564;-123.458;2023-07-30T01:30:21;100994.25;;;25.65;28.15
29063;BME280;71206;48.564;-123.458;2023-07-30T01:32:43;100994.08;;;25.88;27.93
29063;BME280;71206;48.564;-123.458;2023-07-30T01:35:08;100999.54;;;25.63;28.13
29063;BME280;71206;48.564;-123.458;2023-07-30T01:37:32;100998.55;;;25.52;28.59
29063;BME280;71206;48.564;-123.458;2023-07-30T01:39:57;100997.41;;;25.00;29.30
29063;BME280;71206;48.564;-123.458;2023-07-30T01:42:28;100997.37;;;24.96;29.09
29063;BME280;71206;48.564;-123.458;2023-07-30T01:44:49;100996.91;;;24.04;30.25
29063;BME280;71206;48.564;-123.458;2023-07-30T01:47:14;100992.42;;;25.28;29.65
29063;BME280;71206;48.564;-123.458;2023-07-30T01:49:40;100993.80;;;24.96;30.02
29063;BME280;71206;48.564;-123.458;2023-07-30T01:52:07;100993.12;;;25.08;29.39
29063;BME280;71206;48.564;-123.458;2023-07-30T01:54:33;100995.40;;;24.28;30.22
29063;BME280;71206;48.564;-123.458;2023-07-30T01:56:59;100996.92;;;24.81;30.62
29063;BME280;71206;48.564;-123.458;2023-07-30T01:59:23;100992.88;;;25.24;30.52
29063;BME280;71206;48.564;-123.458;2023-07-30T02:01:49;100995.66;;;25.21;31.49
29063;BME280;71206;48.564;-123.458;2023-07-30T02:04:14;100994.51;;;24.86;32.02
29063;BME280;71206;48.564;-123.458;2023-07-30T02:06:40;100995.99;;;25.19;32.05
29063;BME280;71206;48.564;-123.458;2023-07-30T02:09:06;100997.02;;;24.54;32.64
29063;BME280;71206;48.564;-123.458;2023-07-30T02:11:32;101009.10;;;23.62;34.93
29063;BME280;71206;48.564;-123.458;2023-07-30T02:13:57;101008.89;;;23.37;35.85
29063;BME280;71206;48.564;-123.458;2023-07-30T02:16:25;101010.26;;;23.34;36.26
29063;BME280;71206;48.564;-123.458;2023-07-30T02:18:49;101010.27;;;23.62;35.86
29063;BME280;71206;48.564;-123.458;2023-07-30T02:21:15;101011.77;;;24.19;35.36
29063;BME280;71206;48.564;-123.458;2023-07-30T02:23:40;101011.61;;;24.41;34.76
29063;BME280;71206;48.564;-123.458;2023-07-30T02:26:06;101015.38;;;23.82;36.15
29063;BME280;71206;48.564;-123.458;2023-07-30T02:28:32;101015.62;;;23.63;36.53
29063;BME280;71206;48.564;-123.458;2023-07-30T02:30:57;101017.64;;;23.14;36.47
29063;BME280;71206;48.564;-123.458;2023-07-30T02:33:23;101021.94;;;22.40;38.07
29063;BME280;71206;48.564;-123.458;2023-07-30T02:35:49;101022.76;;;22.68;37.84
29063;BME280;71206;48.564;-123.458;2023-07-30T02:38:15;101017.84;;;22.87;37.65
29063;BME280;71206;48.564;-123.458;2023-07-30T02:40:41;101024.30;;;22.45;37.98
29063;BME280;71206;48.564;-123.458;2023-07-30T02:43:06;101020.35;;;22.58;37.55
29063;BME280;71206;48.564;-123.458;2023-07-30T02:45:32;101027.63;;;22.12;38.63
29063;BME280;71206;48.564;-123.458;2023-07-30T02:47:58;101025.38;;;22.11;38.81
29063;BME280;71206;48.564;-123.458;2023-07-30T02:50:24;101019.44;;;22.79;37.63
29063;BME280;71206;48.564;-123.458;2023-07-30T02:52:50;101020.35;;;23.11;37.55
29063;BME280;71206;48.564;-123.458;2023-07-30T02:55:16;101025.87;;;22.63;38.19
29063;BME280;71206;48.564;-123.458;2023-07-30T02:57:41;101030.08;;;22.68;38.32
29063;BME280;71206;48.564;-123.458;2023-07-30T03:00:08;101028.61;;;21.94;38.69
29063;BME280;71206;48.564;-123.458;2023-07-30T03:02:33;101026.65;;;22.46;38.41
29063;BME280;71206;48.564;-123.458;2023-07-30T03:04:59;101033.56;;;21.65;39.37
29063;BME280;71206;48.564;-123.458;2023-07-30T03:07:25;101029.74;;;22.42;38.68
29063;BME280;71206;48.564;-123.458;2023-07-30T03:09:50;101029.79;;;22.33;38.70
29063;BME280;71206;48.564;-123.458;2023-07-30T03:12:17;101029.56;;;21.96;39.02
29063;BME280;71206;48.564;-123.458;2023-07-30T03:14:42;101032.11;;;22.33;38.91
29063;BME280;71206;48.564;-123.458;2023-07-30T03:17:08;101032.47;;;22.44;38.37
29063;BME280;71206;48.564;-123.458;2023-07-30T03:19:33;101032.34;;;22.64;37.81
29063;BME280;71206;48.564;-123.458;2023-07-30T03:21:59;101029.93;;;23.03;37.33
29063;BME280;71206;48.564;-123.458;2023-07-30T03:24:25;101030.25;;;23.00;37.25
29063;BME280;71206;48.564;-123.458;2023-07-30T03:26:50;101030.12;;;22.79;37.53
29063;BME280;71206;48.564;-123.458;2023-07-30T03:29:17;101031.29;;;23.30;36.49
29063;BME280;71206;48.564;-123.458;2023-07-30T03:31:42;101032.27;;;23.01;37.32
29063;BME280;71206;48.564;-123.458;2023-07-30T03:34:08;101038.14;;;22.77;37.51
29063;BME280;71206;48.564;-123.458;2023-07-30T03:36:34;101039.79;;;21.94;38.36
29063;BME280;71206;48.564;-123.458;2023-07-30T03:38:59;101038.45;;;22.22;38.32
29063;BME280;71206;48.564;-123.458;2023-07-30T03:41:26;101034.92;;;22.83;37.69
29063;BME280;71206;48.564;-123.458;2023-07-30T03:43:52;101037.25;;;22.71;37.81
29063;BME280;71206;48.564;-123.458;2023-07-30T03:46:17;101040.70;;;22.36;38.09
29063;BME280;71206;48.564;-123.458;2023-07-30T03:48:42;101039.36;;;22.45;37.87
29063;BME280;71206;48.564;-123.458;2023-07-30T03:51:09;101042.60;;;22.29;38.30
29063;BME280;71206;48.564;-123.458;2023-07-30T03:53:36;101043.10;;;22.27;38.51
29063;BME280;71206;48.564;-123.458;2023-07-30T03:56:01;101048.08;;;22.28;38.71
29063;BME280;71206;48.564;-123.458;2023-07-30T03:58:26;101050.75;;;22.14;39.01
29063;BME280;71206;48.564;-123.458;2023-07-30T04:00:52;101056.39;;;22.18;38.73
29063;BME280;71206;48.564;-123.458;2023-07-30T04:03:17;101056.66;;;21.99;39.04
29063;BME280;71206;48.564;-123.458;2023-07-30T04:05:43;101055.90;;;20.75;40.75
29063;BME280;71206;48.564;-123.458;2023-07-30T04:08:10;101060.83;;;21.33;40.81
29063;BME280;71206;48.564;-123.458;2023-07-30T04:10:35;101066.11;;;21.71;40.32
29063;BME280;71206;48.564;-123.458;2023-07-30T04:13:01;101069.10;;;21.88;39.92
29063;BME280;71206;48.564;-123.458;2023-07-30T04:15:26;101073.32;;;22.10;40.29
29063;BME280;71206;48.564;-123.458;2023-07-30T04:17:52;101077.59;;;22.03;39.85
29063;BME280;71206;48.564;-123.458;2023-07-30T04:20:19;101073.73;;;20.95;41.21
29063;BME280;71206;48.564;-123.458;2023-07-30T04:22:44;101077.50;;;22.00;40.36
29063;BME280;71206;48.564;-123.458;2023-07-30T04:25:10;101081.93;;;22.07;40.23
29063;BME280;71206;48.564;-123.458;2023-07-30T04:27:35;101085.00;;;22.49;39.02
29063;BME280;71206;48.564;-123.458;2023-07-30T04:30:03;101083.38;;;22.95;38.63
29063;BME280;71206;48.564;-123.458;2023-07-30T04:32:32;101086.79;;;22.32;39.16
29063;BME280;71206;48.564;-123.458;2023-07-30T04:34:52;101090.72;;;22.76;39.00
29063;BME280;71206;48.564;-123.458;2023-07-30T04:37:18;101092.99;;;22.36;39.03
29063;BME280;71206;48.564;-123.458;2023-07-30T04:39:44;101094.46;;;22.36;39.73
29063;BME280;71206;48.564;-123.458;2023-07-30T04:42:11;101092.80;;;21.27;41.33
29063;BME280;71206;48.564;-123.458;2023-07-30T04:44:36;101089.82;;;20.68;42.01
29063;BME280;71206;48.564;-123.458;2023-07-30T04:47:02;101093.54;;;21.73;41.04
29063;BME280;71206;48.564;-123.458;2023-07-30T04:49:27;101093.59;;;21.92;40.22
29063;BME280;71206;48.564;-123.458;2023-07-30T04:51:53;101095.90;;;22.29;39.75
29063;BME280;71206;48.564;-123.458;2023-07-30T04:54:18;101097.98;;;22.30;39.10
29063;BME280;71206;48.564;-123.458;2023-07-30T04:56:45;101100.63;;;22.18;39.65
29063;BME280;71206;48.564;-123.458;2023-07-30T04:59:11;101102.38;;;20.36;42.46
29063;BME280;71206;48.564;-123.458;2023-07-30T05:01:37;101104.31;;;22.41;39.74
29063;BME280;71206;48.564;-123.458;2023-07-30T05:04:02;101105.31;;;21.63;41.65
29063;BME280;71206;48.564;-123.458;2023-07-30T05:06:33;101104.13;;;21.44;40.53
29063;BME280;71206;48.564;-123.458;2023-07-30T05:08:53;101108.45;;;20.49;41.65
29063;BME280;71206;48.564;-123.458;2023-07-30T05:11:20;101111.19;;;20.94;41.68
29063;BME280;71206;48.564;-123.458;2023-07-30T05:13:47;101111.03;;;20.76;41.25
29063;BME280;71206;48.564;-123.458;2023-07-30T05:16:11;101114.58;;;21.85;40.34
29063;BME280;71206;48.564;-123.458;2023-07-30T05:18:37;101119.73;;;21.32;40.41
29063;BME280;71206;48.564;-123.458;2023-07-30T05:21:03;101127.75;;;20.34;42.68
29063;BME280;71206;48.564;-123.458;2023-07-30T05:23:29;101128.28;;;19.98;43.85
29063;BME280;71206;48.564;-123.458;2023-07-30T05:25:56;101124.45;;;20.86;41.65
29063;BME280;71206;48.564;-123.458;2023-07-30T05:28:20;101125.88;;;19.46;45.78
29063;BME280;71206;48.564;-123.458;2023-07-30T05:30:46;101128.67;;;19.55;44.91
29063;BME280;71206;48.564;-123.458;2023-07-30T05:33:20;101125.03;;;19.71;44.42
29063;BME280;71206;48.564;-123.458;2023-07-30T05:35:37;101128.65;;;19.47;45.28
29063;BME280;71206;48.564;-123.458;2023-07-30T05:38:03;101125.30;;;19.29;44.76
29063;BME280;71206;48.564;-123.458;2023-07-30T05:40:29;101126.69;;;20.17;42.82
29063;BME280;71206;48.564;-123.458;2023-07-30T05:42:55;101124.52;;;20.55;41.63
29063;BME280;71206;48.564;-123.458;2023-07-30T05:45:21;101129.71;;;20.81;44.68
29063;BME280;71206;48.564;-123.458;2023-07-30T05:47:46;101134.09;;;21.43;44.37
29063;BME280;71206;48.564;-123.458;2023-07-30T05:50:13;101135.42;;;19.68;47.18
29063;BME280;71206;48.564;-123.458;2023-07-30T05:52:39;101131.15;;;18.84;47.54
29063;BME280;71206;48.564;-123.458;2023-07-30T05:55:05;101134.14;;;18.92;50.62
29063;BME280;71206;48.564;-123.458;2023-07-30T05:57:30;101135.90;;;18.93;51.01
29063;BME280;71206;48.564;-123.458;2023-07-30T05:59:56;101143.19;;;18.16;55.71
29063;BME280;71206;48.564;-123.458;2023-07-30T06:02:22;101133.84;;;19.45;50.75
29063;BME280;71206;48.564;-123.458;2023-07-30T06:04:51;101138.02;;;17.82;54.23
29063;BME280;71206;48.564;-123.458;2023-07-30T06:07:13;101139.73;;;18.46;53.77
29063;BME280;71206;48.564;-123.458;2023-07-30T06:09:39;101141.37;;;18.03;57.91
29063;BME280;71206;48.564;-123.458;2023-07-30T06:12:06;101144.31;;;16.66;67.10
29063;BME280;71206;48.564;-123.458;2023-07-30T06:14:30;101141.56;;;17.29;65.53
29063;BME280;71206;48.564;-123.458;2023-07-30T06:16:56;101146.72;;;17.07;69.60
29063;BME280;71206;48.564;-123.458;2023-07-30T06:19:20;101142.98;;;17.19;66.43
29063;BME280;71206;48.564;-123.458;2023-07-30T06:21:45;101144.53;;;17.12;69.14
29063;BME280;71206;48.564;-123.458;2023-07-30T06:24:10;101147.39;;;17.18;68.16
29063;BME280;71206;48.564;-123.458;2023-07-30T06:26:35;101147.20;;;16.65;70.30
29063;BME280;71206;48.564;-123.458;2023-07-30T06:29:01;101150.31;;;17.02;68.68
29063;BME280;71206;48.564;-123.458;2023-07-30T06:31:25;101147.26;;;16.96;65.94
29063;BME280;71206;48.564;-123.458;2023-07-30T06:33:51;101152.36;;;17.65;59.76
29063;BME280;71206;48.564;-123.458;2023-07-30T06:36:16;101155.61;;;17.51;61.51
29063;BME280;71206;48.564;-123.458;2023-07-30T06:38:41;101154.15;;;17.00;64.26
29063;BME280;71206;48.564;-123.458;2023-07-30T06:41:05;101153.65;;;16.75;69.67
29063;BME280;71206;48.564;-123.458;2023-07-30T06:43:30;101156.00;;;16.96;67.19
29063;BME280;71206;48.564;-123.458;2023-07-30T06:45:56;101157.81;;;15.90;71.13
29063;BME280;71206;48.564;-123.458;2023-07-30T06:48:20;101161.86;;;16.67;70.24
29063;BME280;71206;48.564;-123.458;2023-07-30T06:50:46;101164.05;;;16.40;70.95
29063;BME280;71206;48.564;-123.458;2023-07-30T06:53:11;101161.27;;;17.85;60.46
29063;BME280;71206;48.564;-123.458;2023-07-30T06:55:36;101168.79;;;17.31;62.54
29063;BME280;71206;48.564;-123.458;2023-07-30T06:58:02;101174.52;;;15.97;70.99
29063;BME280;71206;48.564;-123.458;2023-07-30T07:00:26;101173.70;;;16.31;68.92
29063;BME280;71206;48.564;-123.458;2023-07-30T07:02:51;101174.78;;;16.80;63.38
29063;BME280;71206;48.564;-123.458;2023-07-30T07:05:16;101178.05;;;18.67;56.82
29063;BME280;71206;48.564;-123.458;2023-07-30T07:07:41;101178.28;;;16.75;62.67
29063;BME280;71206;48.564;-123.458;2023-07-30T07:10:13;101181.55;;;16.74;64.62
29063;BME280;71206;48.564;-123.458;2023-07-30T07:12:32;101179.51;;;17.62;59.09
29063;BME280;71206;48.564;-123.458;2023-07-30T07:14:58;101185.91;;;17.18;59.22
29063;BME280;71206;48.564;-123.458;2023-07-30T07:17:22;101186.92;;;16.33;64.92
29063;BME280;71206;48.564;-123.458;2023-07-30T07:19:47;101185.42;;;17.73;57.82
29063;BME280;71206;48.564;-123.458;2023-07-30T07:22:12;101188.44;;;17.21;59.40
29063;BME280;71206;48.564;-123.458;2023-07-30T07:24:37;101192.96;;;16.68;62.30
29063;BME280;71206;48.564;-123.458;2023-07-30T07:27:04;101187.07;;;17.84;58.01
29063;BME280;71206;48.564;-123.458;2023-07-30T07:29:27;101190.30;;;16.60;63.83
29063;BME280;71206;48.564;-123.458;2023-07-30T07:31:52;101191.75;;;16.05;66.95
29063;BME280;71206;48.564;-123.458;2023-07-30T07:34:17;101196.29;;;16.26;65.57
29063;BME280;71206;48.564;-123.458;2023-07-30T07:36:42;101196.30;;;16.08;68.42
29063;BME280;71206;48.564;-123.458;2023-07-30T07:39:07;101200.82;;;15.91;68.55
29063;BME280;71206;48.564;-123.458;2023-07-30T07:41:33;101198.83;;;15.51;74.03
29063;BME280;71206;48.564;-123.458;2023-07-30T07:43:58;101199.83;;;15.79;71.46
29063;BME280;71206;48.564;-123.458;2023-07-30T07:46:23;101209.68;;;14.60;82.90
29063;BME280;71206;48.564;-123.458;2023-07-30T07:48:48;101209.47;;;15.09;83.29
29063;BME280;71206;48.564;-123.458;2023-07-30T07:51:13;101215.61;;;14.83;83.05
29063;BME280;71206;48.564;-123.458;2023-07-30T07:53:38;101214.50;;;14.41;88.95
29063;BME280;71206;48.564;-123.458;2023-07-30T07:56:04;101210.86;;;15.23;78.88
29063;BME280;71206;48.564;-123.458;2023-07-30T07:58:28;101207.46;;;15.47;76.00
29063;BME280;71206;48.564;-123.458;2023-07-30T08:00:55;101215.89;;;15.04;82.52
29063;BME280;71206;48.564;-123.458;2023-07-30T08:03:18;101215.31;;;14.84;83.05
29063;BME280;71206;48.564;-123.458;2023-07-30T08:05:43;101215.60;;;15.09;80.95
29063;BME280;71206;48.564;-123.458;2023-07-30T08:08:08;101219.82;;;14.74;83.68
29063;BME280;71206;48.564;-123.458;2023-07-30T08:10:39;101221.15;;;14.72;86.82
29063;BME280;71206;48.564;-123.458;2023-07-30T08:12:59;101217.01;;;15.29;80.82
29063;BME280;71206;48.564;-123.458;2023-07-30T08:15:24;101215.46;;;15.23;80.83
29063;BME280;71206;48.564;-123.458;2023-07-30T08:17:49;101211.51;;;15.53;79.43
29063;BME280;71206;48.564;-123.458;2023-07-30T08:20:14;101219.44;;;14.84;85.75
29063;BME280;71206;48.564;-123.458;2023-07-30T08:22:39;101213.65;;;16.24;74.38
29063;BME280;71206;48.564;-123.458;2023-07-30T08:25:05;101219.12;;;15.17;83.93
29063;BME280;71206;48.564;-123.458;2023-07-30T08:27:30;101213.94;;;15.69;80.17
29063;BME280;71206;48.564;-123.458;2023-07-30T08:29:56;101221.22;;;14.54;89.75
29063;BME280;71206;48.564;-123.458;2023-07-30T08:32:19;101221.35;;;14.73;86.88
29063;BME280;71206;48.564;-123.458;2023-07-30T08:34:44;101224.16;;;15.00;90.04
29063;BME280;71206;48.564;-123.458;2023-07-30T08:37:09;101227.31;;;14.40;93.25
29063;BME280;71206;48.564;-123.458;2023-07-30T08:39:41;101229.78;;;13.28;100.00
29063;BME280;71206;48.564;-123.458;2023-07-30T08:42:00;101231.25;;;14.06;99.48
29063;BME280;71206;48.564;-123.458;2023-07-30T08:44:26;101230.47;;;13.71;100.00
29063;BME280;71206;48.564;-123.458;2023-07-30T08:46:50;101231.24;;;14.27;98.99
29063;BME280;71206;48.564;-123.458;2023-07-30T08:49:15;101233.08;;;14.46;91.26
29063;BME280;71206;48.564;-123.458;2023-07-30T08:51:41;101231.35;;;14.82;88.07
29063;BME280;71206;48.564;-123.458;2023-07-30T08:54:08;101229.56;;;15.07;80.91
29063;BME280;71206;48.564;-123.458;2023-07-30T08:56:31;101227.97;;;14.37;88.23
29063;BME280;71206;48.564;-123.458;2023-07-30T08:58:57;101224.00;;;14.22;91.97
29063;BME280;71206;48.564;-123.458;2023-07-30T09:01:22;101222.85;;;14.48;88.52
29063;BME280;71206;48.564;-123.458;2023-07-30T09:03:49;101218.57;;;14.73;93.39
29063;BME280;71206;48.564;-123.458;2023-07-30T09:06:11;101210.67;;;15.24;83.52
29063;BME280;71206;48.564;-123.458;2023-07-30T09:08:37;101214.53;;;14.06;100.00
29063;BME280;71206;48.564;-123.458;2023-07-30T09:11:08;101216.11;;;13.77;100.00
29063;BME280;71206;48.564;-123.458;2023-07-30T09:13:26;101215.49;;;13.77;100.00
29063;BME280;71206;48.564;-123.458;2023-07-30T09:15:52;101217.21;;;13.93;100.00
29063;BME280;71206;48.564;-123.458;2023-07-30T09:18:18;101218.55;;;14.26;93.73
29063;BME280;71206;48.564;-123.458;2023-07-30T09:20:42;101213.08;;;14.98;83.39
29063;BME280;71206;48.564;-123.458;2023-07-30T09:23:12;101210.87;;;13.87;100.00
29063;BME280;71206;48.564;-123.458;2023-07-30T09:25:32;101213.59;;;14.45;91.57
29063;BME280;71206;48.564;-123.458;2023-07-30T09:27:58;101211.13;;;13.91;93.93
29063;BME280;71206;48.564;-123.458;2023-07-30T09:30:24;101214.86;;;13.44;100.00
29063;BME280;71206;48.564;-123.458;2023-07-30T09:32:52;101214.97;;;13.98;98.90
29063;BME280;71206;48.564;-123.458;2023-07-30T09:35:13;101213.91;;;13.88;98.25
29063;BME280;71206;48.564;-123.458;2023-07-30T09:37:40;101218.05;;;13.47;100.00
29063;BME280;71206;48.564;-123.458;2023-07-30T09:40:04;101216.12;;;12.90;100.00
29063;BME280;71206;48.564;-123.458;2023-07-30T09:42:29;101214.98;;;12.97;100.00
29063;BME280;71206;48.564;-123.458;2023-07-30T09:44:53;101213.05;;;13.12;100.00
29063;BME280;71206;48.564;-123.458;2023-07-30T09:47:19;101211.52;;;13.64;97.70
29063;BME280;71206;48.564;-123.458;2023-07-30T09:49:44;101209.81;;;13.13;100.00
29063;BME280;71206;48.564;-123.458;2023-07-30T09:52:09;101213.10;;;12.49;100.00
29063;BME280;71206;48.564;-123.458;2023-07-30T09:54:34;101208.80;;;13.18;100.00
29063;BME280;71206;48.564;-123.458;2023-07-30T09:56:59;101208.76;;;13.00;100.00
29063;BME280;71206;48.564;-123.458;2023-07-30T09:59:25;101209.51;;;13.05;100.00
29063;BME280;71206;48.564;-123.458;2023-07-30T10:01:50;101210.40;;;13.85;100.00
29063;BME280;71206;48.564;-123.458;2023-07-30T10:04:18;101209.17;;;14.05;97.84
29063;BME280;71206;48.564;-123.458;2023-07-30T10:06:43;101211.89;;;13.15;100.00
29063;BME280;71206;48.564;-123.458;2023-07-30T10:09:05;101211.96;;;13.41;99.29
29063;BME280;71206;48.564;-123.458;2023-07-30T10:11:30;101212.25;;;14.03;97.25
29063;BME280;71206;48.564;-123.458;2023-07-30T10:13:56;101213.41;;;13.60;100.00
29063;BME280;71206;48.564;-123.458;2023-07-30T10:16:25;101218.54;;;13.28;100.00
29063;BME280;71206;48.564;-123.458;2023-07-30T10:18:46;101220.95;;;12.74;100.00
29063;BME280;71206;48.564;-123.458;2023-07-30T10:23:39;101220.15;;;12.36;100.00
29063;BME280;71206;48.564;-123.458;2023-07-30T10:26:09;101221.12;;;12.62;100.00
29063;BME280;71206;48.564;-123.458;2023-07-30T10:28:31;101220.93;;;12.35;100.00
29063;BME280;71206;48.564;-123.458;2023-07-30T10:30:57;101219.96;;;12.87;100.00
29063;BME280;71206;48.564;-123.458;2023-07-30T10:33:17;101214.02;;;12.99;100.00
29063;BME280;71206;48.564;-123.458;2023-07-30T10:35:43;101210.08;;;13.00;100.00
29063;BME280;71206;48.564;-123.458;2023-07-30T10:38:19;101211.75;;;12.85;100.00
29063;BME280;71206;48.564;-123.458;2023-07-30T10:40:32;101211.90;;;13.55;100.00
29063;BME280;71206;48.564;-123.458;2023-07-30T10:42:58;101210.42;;;13.13;100.00
29063;BME280;71206;48.564;-123.458;2023-07-30T10:45:26;101209.20;;;13.13;100.00
29063;BME280;71206;48.564;-123.458;2023-07-30T10:47:48;101210.31;;;12.67;100.00
29063;BME280;71206;48.564;-123.458;2023-07-30T10:50:13;101214.03;;;12.79;100.00
29063;BME280;71206;48.564;-123.458;2023-07-30T10:52:38;101212.97;;;13.05;100.00
29063;BME280;71206;48.564;-123.458;2023-07-30T10:55:04;101216.70;;;12.63;100.00
29063;BME280;71206;48.564;-123.458;2023-07-30T10:57:31;101214.25;;;13.12;100.00
29063;BME280;71206;48.564;-123.458;2023-07-30T10:59:54;101213.41;;;12.81;100.00
29063;BME280;71206;48.564;-123.458;2023-07-30T11:02:18;101207.45;;;13.97;93.90
29063;BME280;71206;48.564;-123.458;2023-07-30T11:04:44;101207.46;;;13.86;95.15
29063;BME280;71206;48.564;-123.458;2023-07-30T11:07:09;101211.39;;;13.73;92.43
29063;BME280;71206;48.564;-123.458;2023-07-30T11:09:34;101211.96;;;13.04;100.00
29063;BME280;71206;48.564;-123.458;2023-07-30T11:11:59;101208.19;;;13.61;98.88
29063;BME280;71206;48.564;-123.458;2023-07-30T11:14:26;101213.39;;;13.02;100.00
29063;BME280;71206;48.564;-123.458;2023-07-30T11:16:51;101212.85;;;13.48;100.00
29063;BME280;71206;48.564;-123.458;2023-07-30T11:19:14;101213.88;;;13.32;100.00
29063;BME280;71206;48.564;-123.458;2023-07-30T11:21:44;101216.08;;;13.37;99.51
29063;BME280;71206;48.564;-123.458;2023-07-30T11:24:05;101217.77;;;12.81;100.00
29063;BME280;71206;48.564;-123.458;2023-07-30T11:26:30;101220.76;;;12.85;100.00
29063;BME280;71206;48.564;-123.458;2023-07-30T11:28:55;101223.13;;;12.67;100.00
29063;BME280;71206;48.564;-123.458;2023-07-30T11:31:20;101221.72;;;12.88;100.00
29063;BME280;71206;48.564;-123.458;2023-07-30T11:33:47;101223.31;;;12.84;100.00
29063;BME280;71206;48.564;-123.458;2023-07-30T11:36:12;101225.94;;;12.68;100.00
29063;BME280;71206;48.564;-123.458;2023-07-30T11:38:39;101227.92;;;12.34;100.00
29063;BME280;71206;48.564;-123.458;2023-07-30T11:41:02;101229.96;;;12.75;100.00
29063;BME280;71206;48.564;-123.458;2023-07-30T11:43:26;101230.01;;;12.59;100.00
29063;BME280;71206;48.564;-123.458;2023-07-30T11:48:18;101228.24;;;12.58;100.00
29063;BME280;71206;48.564;-123.458;2023-07-30T11:50:45;101228.49;;;12.71;100.00
29063;BME280;71206;48.564;-123.458;2023-07-30T11:53:07;101234.22;;;12.04;100.00
29063;BME280;71206;48.564;-123.458;2023-07-30T11:55:38;101234.84;;;12.33;100.00
29063;BME280;71206;48.564;-123.458;2023-07-30T11:57:59;101233.41;;;12.47;100.00
29063;BME280;71206;48.564;-123.458;2023-07-30T12:00:22;101237.54;;;12.50;100.00
29063;BME280;71206;48.564;-123.458;2023-07-30T12:02:48;101238.28;;;12.26;100.00
29063;BME280;71206;48.564;-123.458;2023-07-30T12:05:13;101239.37;;;11.52;100.00
29063;BME280;71206;48.564;-123.458;2023-07-30T12:07:41;101239.67;;;11.37;100.00
29063;BME280;71206;48.564;-123.458;2023-07-30T12:10:09;101240.10;;;11.44;100.00
29063;BME280;71206;48.564;-123.458;2023-07-30T12:12:28;101245.39;;;12.04;100.00